sensor_id;sensor_type;location;lat;lon;timestamp;temperature;humidity
13642;DHT22;6894;52.196;9.904;2022-11-21T00:01:12;0.60;99.90
13642;DHT22;6894;52.196;9.904;2022-11-21T00:03:39;0.60;99.90
13642;DHT22;6894;52.196;9.904;2022-11-21T00:06:06;0.50;99.90
13642;DHT22;6894;52.196;9.904;2022-11-21T00:08:32;0.50;99.90
13642;DHT22;6894;52.196;9.904;2022-11-21T00:10:59;0.60;99.90
13642;DHT22;6894;52.196;9.904;2022-11-21T00:13:26;0.50;99.90
13642;DHT22;6894;52.196;9.904;2022-11-21T00:15:54;0.60;99.90
13642;DHT22;6894;52.196;9.904;2022-11-21T00:18:21;0.50;99.90
13642;DHT22;6894;52.196;9.904;2022-11-21T00:20:47;0.50;99.90
13642;DHT22;6894;52.196;9.904;2022-11-21T00:23:14;0.50;99.90
13642;DHT22;6894;52.196;9.904;2022-11-21T00:25:41;0.60;99.90
13642;DHT22;6894;52.196;9.904;2022-11-21T00:28:07;0.50;99.90
13642;DHT22;6894;52.196;9.904;2022-11-21T00:30:34;0.50;99.90
13642;DHT22;6894;52.196;9.904;2022-11-21T00:33:03;0.50;99.90
13642;DHT22;6894;52.196;9.904;2022-11-21T00:35:29;0.50;99.90
13642;DHT22;6894;52.196;9.904;2022-11-21T00:37:57;0.50;99.90
13642;DHT22;6894;52.196;9.904;2022-11-21T00:40:23;0.40;99.90
13642;DHT22;6894;52.196;9.904;2022-11-21T00:42:50;0.40;99.90
13642;DHT22;6894;52.196;9.904;2022-11-21T00:45:17;0.40;99.90
13642;DHT22;6894;52.196;9.904;2022-11-21T00:47:43;0.40;99.90
13642;DHT22;6894;52.196;9.904;2022-11-21T00:50:12;0.40;99.90
13642;DHT22;6894;52.196;9.904;2022-11-21T00:52:38;0.40;99.90
13642;DHT22;6894;52.196;9.904;2022-11-21T00:55:05;0.40;99.90
13642;DHT22;6894;52.196;9.904;2022-11-21T00:57:32;0.30;99.90
13642;DHT22;6894;52.196;9.904;2022-11-21T00:59:59;0.30;99.90
13642;DHT22;6894;52.196;9.904;2022-11-21T01:02:26;0.30;99.90
13642;DHT22;6894;52.196;9.904;2022-11-21T01:04:52;0.30;99.90
13642;DHT22;6894;52.196;9.904;2022-11-21T01:07:20;0.30;99.90
13642;DHT22;6894;52.196;9.904;2022-11-21T01:09:47;0.30;99.90
13642;DHT22;6894;52.196;9.904;2022-11-21T01:12:14;0.30;99.90
13642;DHT22;6894;52.196;9.904;2022-11-21T01:14:40;0.30;99.90
13642;DHT22;6894;52.196;9.904;2022-11-21T01:17:07;0.20;99.90
13642;DHT22;6894;52.196;9.904;2022-11-21T01:19:34;0.20;99.90
13642;DHT22;6894;52.196;9.904;2022-11-21T01:22:00;0.30;99.90
13642;DHT22;6894;52.196;9.904;2022-11-21T01:24:28;0.30;99.90
13642;DHT22;6894;52.196;9.904;2022-11-21T01:26:55;0.30;99.90
13642;DHT22;6894;52.196;9.904;2022-11-21T01:29:22;0.30;99.90
13642;DHT22;6894;52.196;9.904;2022-11-21T01:31:49;0.70;99.90
13642;DHT22;6894;52.196;9.904;2022-11-21T01:34:15;0.30;99.90
13642;DHT22;6894;52.196;9.904;2022-11-21T01:36:43;0.20;99.90
13642;DHT22;6894;52.196;9.904;2022-11-21T01:39:10;0.30;99.90
13642;DHT22;6894;52.196;9.904;2022-11-21T01:41:40;0.30;99.90
13642;DHT22;6894;52.196;9.904;2022-11-21T01:44:15;0.30;99.90
13642;DHT22;6894;52.196;9.904;2022-11-21T01:46:42;0.20;99.90
13642;DHT22;6894;52.196;9.904;2022-11-21T01:49:10;0.20;99.90
13642;DHT22;6894;52.196;9.904;2022-11-21T01:51:40;0.30;99.90
13642;DHT22;6894;52.196;9.904;2022-11-21T01:54:12;0.20;99.90
13642;DHT22;6894;52.196;9.904;2022-11-21T01:56:45;0.30;99.90
13642;DHT22;6894;52.196;9.904;2022-11-21T01:59:17;0.30;99.90
13642;DHT22;6894;52.196;9.904;2022-11-21T02:01:45;0.30;99.90
13642;DHT22;6894;52.196;9.904;2022-11-21T02:04:13;0.30;99.90
13642;DHT22;6894;52.196;9.904;2022-11-21T02:06:40;0.30;99.90
13642;DHT22;6894;52.196;9.904;2022-11-21T02:09:07;0.20;99.90
13642;DHT22;6894;52.196;9.904;2022-11-21T02:11:37;0.30;99.90
13642;DHT22;6894;52.196;9.904;2022-11-21T02:14:08;0.30;99.90
13642;DHT22;6894;52.196;9.904;2022-11-21T02:16:35;0.20;99.90
13642;DHT22;6894;52.196;9.904;2022-11-21T02:19:02;0.30;99.90
13642;DHT22;6894;52.196;9.904;2022-11-21T02:21:37;0.30;99.90
13642;DHT22;6894;52.196;9.904;2022-11-21T02:24:13;0.40;99.90
13642;DHT22;6894;52.196;9.904;2022-11-21T02:26:44;0.40;99.90
13642;DHT22;6894;52.196;9.904;2022-11-21T02:29:12;0.40;99.90
13642;DHT22;6894;52.196;9.904;2022-11-21T02:31:38;0.40;99.90
13642;DHT22;6894;52.196;9.904;2022-11-21T02:34:05;0.40;99.90
13642;DHT22;6894;52.196;9.904;2022-11-21T02:36:38;0.40;99.90
13642;DHT22;6894;52.196;9.904;2022-11-21T02:39:06;0.40;99.90
13642;DHT22;6894;52.196;9.904;2022-11-21T02:41:36;0.30;99.90
13642;DHT22;6894;52.196;9.904;2022-11-21T02:44:14;0.20;99.90
13642;DHT22;6894;52.196;9.904;2022-11-21T02:46:46;0.20;99.90
13642;DHT22;6894;52.196;9.904;2022-11-21T02:49:15;0.10;99.90
13642;DHT22;6894;52.196;9.904;2022-11-21T02:51:43;0.10;99.90
13642;DHT22;6894;52.196;9.904;2022-11-21T02:54:10;0.10;99.90
13642;DHT22;6894;52.196;9.904;2022-11-21T02:56:37;0.00;99.90
13642;DHT22;6894;52.196;9.904;2022-11-21T02:59:03;0.00;99.90
13642;DHT22;6894;52.196;9.904;2022-11-21T03:01:32;0.00;99.90
13642;DHT22;6894;52.196;9.904;2022-11-21T03:03:58;0.00;99.90
13642;DHT22;6894;52.196;9.904;2022-11-21T03:06:25;0.00;99.90
13642;DHT22;6894;52.196;9.904;2022-11-21T03:08:52;0.00;99.90
13642;DHT22;6894;52.196;9.904;2022-11-21T03:11:18;0.00;99.90
13642;DHT22;6894;52.196;9.904;2022-11-21T03:13:45;0.00;99.90
13642;DHT22;6894;52.196;9.904;2022-11-21T03:16:12;0.00;99.90
13642;DHT22;6894;52.196;9.904;2022-11-21T03:18:40;0.00;99.90
13642;DHT22;6894;52.196;9.904;2022-11-21T03:21:06;0.00;99.90
13642;DHT22;6894;52.196;9.904;2022-11-21T03:23:33;0.00;99.90
13642;DHT22;6894;52.196;9.904;2022-11-21T03:26:00;0.00;99.90
13642;DHT22;6894;52.196;9.904;2022-11-21T03:28:26;0.10;99.90
13642;DHT22;6894;52.196;9.904;2022-11-21T03:30:53;0.10;99.90
13642;DHT22;6894;52.196;9.904;2022-11-21T03:33:20;0.10;99.90
13642;DHT22;6894;52.196;9.904;2022-11-21T03:35:48;0.10;99.90
13642;DHT22;6894;52.196;9.904;2022-11-21T03:38:14;0.20;99.90
13642;DHT22;6894;52.196;9.904;2022-11-21T03:40:41;0.10;99.90
13642;DHT22;6894;52.196;9.904;2022-11-21T03:43:08;0.10;99.90
13642;DHT22;6894;52.196;9.904;2022-11-21T03:45:35;0.20;99.90
13642;DHT22;6894;52.196;9.904;2022-11-21T03:48:02;0.20;99.90
13642;DHT22;6894;52.196;9.904;2022-11-21T03:50:28;0.20;99.90
13642;DHT22;6894;52.196;9.904;2022-11-21T03:52:56;0.10;99.90
13642;DHT22;6894;52.196;9.904;2022-11-21T03:55:23;0.10;99.90
13642;DHT22;6894;52.196;9.904;2022-11-21T03:57:50;0.10;99.90
13642;DHT22;6894;52.196;9.904;2022-11-21T04:00:17;0.10;99.90
13642;DHT22;6894;52.196;9.904;2022-11-21T04:02:44;0.10;99.90
13642;DHT22;6894;52.196;9.904;2022-11-21T04:05:10;0.20;99.90
13642;DHT22;6894;52.196;9.904;2022-11-21T04:07:37;0.20;99.90
13642;DHT22;6894;52.196;9.904;2022-11-21T04:10:06;0.10;99.90
13642;DHT22;6894;52.196;9.904;2022-11-21T04:12:33;0.10;99.90
13642;DHT22;6894;52.196;9.904;2022-11-21T04:14:59;0.10;99.90
13642;DHT22;6894;52.196;9.904;2022-11-21T04:17:26;0.10;99.90
13642;DHT22;6894;52.196;9.904;2022-11-21T04:19:53;-0.30;99.90
13642;DHT22;6894;52.196;9.904;2022-11-21T04:22:19;0.00;99.90
13642;DHT22;6894;52.196;9.904;2022-11-21T04:24:46;0.00;99.90
13642;DHT22;6894;52.196;9.904;2022-11-21T04:27:14;0.00;99.90
13642;DHT22;6894;52.196;9.904;2022-11-21T04:29:41;-0.10;99.90
13642;DHT22;6894;52.196;9.904;2022-11-21T04:32:07;-0.10;99.90
13642;DHT22;6894;52.196;9.904;2022-11-21T04:34:34;-0.20;99.90
13642;DHT22;6894;52.196;9.904;2022-11-21T04:37:01;-0.10;99.90
13642;DHT22;6894;52.196;9.904;2022-11-21T04:39:27;-0.20;99.90
13642;DHT22;6894;52.196;9.904;2022-11-21T04:41:54;-0.30;99.90
13642;DHT22;6894;52.196;9.904;2022-11-21T04:44:22;-0.20;99.90
13642;DHT22;6894;52.196;9.904;2022-11-21T04:46:49;-0.30;99.90
13642;DHT22;6894;52.196;9.904;2022-11-21T04:49:17;-0.40;99.90
13642;DHT22;6894;52.196;9.904;2022-11-21T04:51:44;-0.50;99.90
13642;DHT22;6894;52.196;9.904;2022-11-21T04:54:11;-0.50;99.90
13642;DHT22;6894;52.196;9.904;2022-11-21T04:56:37;-0.50;99.90
13642;DHT22;6894;52.196;9.904;2022-11-21T04:59:04;-0.50;99.90
13642;DHT22;6894;52.196;9.904;2022-11-21T05:01:32;-0.50;99.90
13642;DHT22;6894;52.196;9.904;2022-11-21T05:03:59;-0.60;99.90
13642;DHT22;6894;52.196;9.904;2022-11-21T05:06:25;-0.70;99.90
13642;DHT22;6894;52.196;9.904;2022-11-21T05:08:52;-0.70;99.90
13642;DHT22;6894;52.196;9.904;2022-11-21T05:11:19;-0.70;99.90
13642;DHT22;6894;52.196;9.904;2022-11-21T05:14:03;-0.80;99.90
13642;DHT22;6894;52.196;9.904;2022-11-21T05:16:32;-0.80;99.90
13642;DHT22;6894;52.196;9.904;2022-11-21T05:18:59;-0.80;99.90
13642;DHT22;6894;52.196;9.904;2022-11-21T05:21:26;-0.90;99.90
13642;DHT22;6894;52.196;9.904;2022-11-21T05:23:53;-1.00;99.90
13642;DHT22;6894;52.196;9.904;2022-11-21T05:26:19;-1.00;99.90
13642;DHT22;6894;52.196;9.904;2022-11-21T05:28:46;-1.10;99.90
13642;DHT22;6894;52.196;9.904;2022-11-21T05:31:13;-1.10;99.90
13642;DHT22;6894;52.196;9.904;2022-11-21T05:33:41;-1.10;99.90
13642;DHT22;6894;52.196;9.904;2022-11-21T05:36:08;-1.20;99.90
13642;DHT22;6894;52.196;9.904;2022-11-21T05:38:34;-1.30;99.90
13642;DHT22;6894;52.196;9.904;2022-11-21T05:41:01;-1.30;99.90
13642;DHT22;6894;52.196;9.904;2022-11-21T05:43:28;-1.30;99.90
13642;DHT22;6894;52.196;9.904;2022-11-21T05:46:12;-1.30;99.90
13642;DHT22;6894;52.196;9.904;2022-11-21T05:48:40;-1.30;99.90
13642;DHT22;6894;52.196;9.904;2022-11-21T05:51:07;-1.40;99.90
13642;DHT22;6894;52.196;9.904;2022-11-21T05:53:35;-1.40;99.90
13642;DHT22;6894;52.196;9.904;2022-11-21T05:56:03;-1.50;99.90
13642;DHT22;6894;52.196;9.904;2022-11-21T05:58:30;-1.50;99.90
13642;DHT22;6894;52.196;9.904;2022-11-21T06:00:58;-1.50;99.90
13642;DHT22;6894;52.196;9.904;2022-11-21T06:03:24;-1.50;99.90
13642;DHT22;6894;52.196;9.904;2022-11-21T06:06:03;-1.50;99.90
13642;DHT22;6894;52.196;9.904;2022-11-21T06:08:33;-1.50;99.90
13642;DHT22;6894;52.196;9.904;2022-11-21T06:11:00;-1.60;99.90
13642;DHT22;6894;52.196;9.904;2022-11-21T06:13:28;-1.60;99.90
13642;DHT22;6894;52.196;9.904;2022-11-21T06:15:58;-1.60;99.90
13642;DHT22;6894;52.196;9.904;2022-11-21T06:18:26;-1.60;99.90
13642;DHT22;6894;52.196;9.904;2022-11-21T06:20:53;-1.70;99.90
13642;DHT22;6894;52.196;9.904;2022-11-21T06:23:21;-1.70;99.90
13642;DHT22;6894;52.196;9.904;2022-11-21T06:25:55;-1.70;99.90
13642;DHT22;6894;52.196;9.904;2022-11-21T06:28:22;-1.60;99.90
13642;DHT22;6894;52.196;9.904;2022-11-21T06:30:49;-1.50;99.90
13642;DHT22;6894;52.196;9.904;2022-11-21T06:33:17;-1.60;99.90
13642;DHT22;6894;52.196;9.904;2022-11-21T06:35:44;-1.50;99.90
13642;DHT22;6894;52.196;9.904;2022-11-21T06:38:10;-1.50;99.90
13642;DHT22;6894;52.196;9.904;2022-11-21T06:40:39;-1.50;99.90
13642;DHT22;6894;52.196;9.904;2022-11-21T06:43:06;-1.50;99.90
13642;DHT22;6894;52.196;9.904;2022-11-21T06:45:32;-1.50;99.90
13642;DHT22;6894;52.196;9.904;2022-11-21T06:48:00;-1.50;99.90
13642;DHT22;6894;52.196;9.904;2022-11-21T06:50:27;-1.40;99.90
13642;DHT22;6894;52.196;9.904;2022-11-21T06:52:56;-1.40;99.90
13642;DHT22;6894;52.196;9.904;2022-11-21T06:55:22;-1.50;99.90
13642;DHT22;6894;52.196;9.904;2022-11-21T06:57:50;-1.50;99.90
13642;DHT22;6894;52.196;9.904;2022-11-21T07:00:18;-1.60;99.90
13642;DHT22;6894;52.196;9.904;2022-11-21T07:02:45;-1.60;99.90
13642;DHT22;6894;52.196;9.904;2022-11-21T07:05:12;-1.60;99.90
13642;DHT22;6894;52.196;9.904;2022-11-21T07:07:39;-1.60;99.90
13642;DHT22;6894;52.196;9.904;2022-11-21T07:10:06;-1.70;99.90
13642;DHT22;6894;52.196;9.904;2022-11-21T07:12:33;-1.70;99.90
13642;DHT22;6894;52.196;9.904;2022-11-21T07:15:19;-1.70;99.90
13642;DHT22;6894;52.196;9.904;2022-11-21T07:17:46;-1.80;99.90
13642;DHT22;6894;52.196;9.904;2022-11-21T07:20:13;-1.80;99.90
13642;DHT22;6894;52.196;9.904;2022-11-21T07:22:40;-1.80;99.90
13642;DHT22;6894;52.196;9.904;2022-11-21T07:25:07;-1.80;99.90
13642;DHT22;6894;52.196;9.904;2022-11-21T07:27:34;-1.80;99.90
13642;DHT22;6894;52.196;9.904;2022-11-21T07:30:00;-1.70;99.90
13642;DHT22;6894;52.196;9.904;2022-11-21T07:32:28;-1.60;99.90
13642;DHT22;6894;52.196;9.904;2022-11-21T07:34:55;-1.50;99.90
13642;DHT22;6894;52.196;9.904;2022-11-21T07:37:22;-1.30;99.90
13642;DHT22;6894;52.196;9.904;2022-11-21T07:39:48;-1.20;99.90
13642;DHT22;6894;52.196;9.904;2022-11-21T07:42:15;-1.10;99.90
13642;DHT22;6894;52.196;9.904;2022-11-21T07:44:42;-1.10;99.90
13642;DHT22;6894;52.196;9.904;2022-11-21T07:47:08;-0.90;99.90
13642;DHT22;6894;52.196;9.904;2022-11-21T07:49:36;-0.80;99.90
13642;DHT22;6894;52.196;9.904;2022-11-21T07:52:03;-0.80;99.90
13642;DHT22;6894;52.196;9.904;2022-11-21T07:54:30;-0.60;99.90
13642;DHT22;6894;52.196;9.904;2022-11-21T07:56:57;-0.40;99.90
13642;DHT22;6894;52.196;9.904;2022-11-21T07:59:23;-0.20;99.90
13642;DHT22;6894;52.196;9.904;2022-11-21T08:01:50;0.00;99.90
13642;DHT22;6894;52.196;9.904;2022-11-21T08:04:17;0.30;99.90
13642;DHT22;6894;52.196;9.904;2022-11-21T08:06:45;0.40;99.90
13642;DHT22;6894;52.196;9.904;2022-11-21T08:09:12;0.60;99.90
13642;DHT22;6894;52.196;9.904;2022-11-21T08:11:39;0.70;99.90
13642;DHT22;6894;52.196;9.904;2022-11-21T08:14:05;1.00;99.90
13642;DHT22;6894;52.196;9.904;2022-11-21T08:16:32;1.20;99.90
13642;DHT22;6894;52.196;9.904;2022-11-21T08:18:59;1.40;99.90
13642;DHT22;6894;52.196;9.904;2022-11-21T08:21:26;1.60;99.90
13642;DHT22;6894;52.196;9.904;2022-11-21T08:23:54;1.80;99.90
13642;DHT22;6894;52.196;9.904;2022-11-21T08:26:20;1.90;99.90
13642;DHT22;6894;52.196;9.904;2022-11-21T08:28:47;2.20;99.90
13642;DHT22;6894;52.196;9.904;2022-11-21T08:31:14;2.40;99.90
13642;DHT22;6894;52.196;9.904;2022-11-21T08:33:41;2.80;99.90
13642;DHT22;6894;52.196;9.904;2022-11-21T08:36:08;3.00;99.90
13642;DHT22;6894;52.196;9.904;2022-11-21T08:38:35;3.30;99.90
13642;DHT22;6894;52.196;9.904;2022-11-21T08:41:03;3.20;99.90
13642;DHT22;6894;52.196;9.904;2022-11-21T08:43:47;3.40;99.90
13642;DHT22;6894;52.196;9.904;2022-11-21T08:46:14;3.40;99.90
13642;DHT22;6894;52.196;9.904;2022-11-21T08:48:41;3.50;99.90
13642;DHT22;6894;52.196;9.904;2022-11-21T08:51:08;3.50;99.90
13642;DHT22;6894;52.196;9.904;2022-11-21T08:53:35;3.10;99.90
13642;DHT22;6894;52.196;9.904;2022-11-21T08:56:03;3.00;99.90
13642;DHT22;6894;52.196;9.904;2022-11-21T08:58:30;2.90;99.90
13642;DHT22;6894;52.196;9.904;2022-11-21T09:00:57;3.20;99.90
13642;DHT22;6894;52.196;9.904;2022-11-21T09:03:24;3.40;99.90
13642;DHT22;6894;52.196;9.904;2022-11-21T09:05:51;3.50;99.90
13642;DHT22;6894;52.196;9.904;2022-11-21T09:08:18;3.30;99.90
13642;DHT22;6894;52.196;9.904;2022-11-21T09:10:44;3.30;99.90
13642;DHT22;6894;52.196;9.904;2022-11-21T09:13:12;3.10;99.90
13642;DHT22;6894;52.196;9.904;2022-11-21T09:15:39;3.20;99.90
13642;DHT22;6894;52.196;9.904;2022-11-21T09:18:23;3.20;99.90
13642;DHT22;6894;52.196;9.904;2022-11-21T09:20:50;3.30;99.90
13642;DHT22;6894;52.196;9.904;2022-11-21T09:23:17;3.50;99.90
13642;DHT22;6894;52.196;9.904;2022-11-21T09:25:43;3.50;99.90
13642;DHT22;6894;52.196;9.904;2022-11-21T09:28:13;3.90;99.90
13642;DHT22;6894;52.196;9.904;2022-11-21T09:30:41;4.10;99.90
13642;DHT22;6894;52.196;9.904;2022-11-21T09:33:10;4.30;76.00
13642;DHT22;6894;52.196;9.904;2022-11-21T09:35:37;4.40;25.40
13642;DHT22;6894;52.196;9.904;2022-11-21T09:38:03;4.40;1.00
13642;DHT22;6894;52.196;9.904;2022-11-21T09:40:32;4.30;1.00
13642;DHT22;6894;52.196;9.904;2022-11-21T09:43:05;4.10;1.00
13642;DHT22;6894;52.196;9.904;2022-11-21T09:45:40;4.20;1.00
13642;DHT22;6894;52.196;9.904;2022-11-21T09:48:12;4.20;1.00
13642;DHT22;6894;52.196;9.904;2022-11-21T09:50:42;4.50;1.00
13642;DHT22;6894;52.196;9.904;2022-11-21T09:53:13;4.50;1.00
13642;DHT22;6894;52.196;9.904;2022-11-21T09:55:44;4.40;1.00
13642;DHT22;6894;52.196;9.904;2022-11-21T09:58:27;4.40;1.00
13642;DHT22;6894;52.196;9.904;2022-11-21T10:00:56;4.40;1.00
13642;DHT22;6894;52.196;9.904;2022-11-21T10:03:26;4.40;1.00
13642;DHT22;6894;52.196;9.904;2022-11-21T10:05:56;4.50;1.00
13642;DHT22;6894;52.196;9.904;2022-11-21T10:08:30;4.70;1.00
13642;DHT22;6894;52.196;9.904;2022-11-21T10:11:09;4.60;1.00
13642;DHT22;6894;52.196;9.904;2022-11-21T10:13:45;4.40;1.00
13642;DHT22;6894;52.196;9.904;2022-11-21T10:16:20;4.60;1.00
13642;DHT22;6894;52.196;9.904;2022-11-21T10:22:23;5.00;1.00
13642;DHT22;6894;52.196;9.904;2022-11-21T10:24:55;5.30;1.00
13642;DHT22;6894;52.196;9.904;2022-11-21T10:27:31;5.40;1.00
13642;DHT22;6894;52.196;9.904;2022-11-21T10:30:02;5.60;1.00
13642;DHT22;6894;52.196;9.904;2022-11-21T10:32:35;5.60;99.90
13642;DHT22;6894;52.196;9.904;2022-11-21T10:35:11;5.10;99.90
13642;DHT22;6894;52.196;9.904;2022-11-21T10:37:44;4.50;1.00
13642;DHT22;6894;52.196;9.904;2022-11-21T10:40:22;4.20;1.00
13642;DHT22;6894;52.196;9.904;2022-11-21T10:42:54;3.80;1.00
13642;DHT22;6894;52.196;9.904;2022-11-21T10:45:23;3.60;1.00
13642;DHT22;6894;52.196;9.904;2022-11-21T10:47:51;3.70;1.00
13642;DHT22;6894;52.196;9.904;2022-11-21T10:50:32;3.80;1.00
13642;DHT22;6894;52.196;9.904;2022-11-21T10:53:11;3.50;1.00
13642;DHT22;6894;52.196;9.904;2022-11-21T10:56:03;3.60;1.00
13642;DHT22;6894;52.196;9.904;2022-11-21T10:58:39;3.80;1.00
13642;DHT22;6894;52.196;9.904;2022-11-21T11:01:21;4.40;1.00
13642;DHT22;6894;52.196;9.904;2022-11-21T11:04:04;4.70;1.00
13642;DHT22;6894;52.196;9.904;2022-11-21T11:06:31;4.90;1.00
13642;DHT22;6894;52.196;9.904;2022-11-21T11:09:02;4.70;1.00
13642;DHT22;6894;52.196;9.904;2022-11-21T11:11:33;4.60;1.00
13642;DHT22;6894;52.196;9.904;2022-11-21T11:14:04;4.20;1.00
13642;DHT22;6894;52.196;9.904;2022-11-21T11:16:34;4.00;1.00
13642;DHT22;6894;52.196;9.904;2022-11-21T11:19:05;4.10;1.00
13642;DHT22;6894;52.196;9.904;2022-11-21T11:21:47;4.20;1.00
13642;DHT22;6894;52.196;9.904;2022-11-21T11:24:22;4.40;1.00
13642;DHT22;6894;52.196;9.904;2022-11-21T11:26:54;4.40;1.00
13642;DHT22;6894;52.196;9.904;2022-11-21T11:29:23;4.20;1.00
13642;DHT22;6894;52.196;9.904;2022-11-21T11:31:54;4.10;1.00
13642;DHT22;6894;52.196;9.904;2022-11-21T11:34:24;3.90;1.00
13642;DHT22;6894;52.196;9.904;2022-11-21T11:36:54;3.60;1.00
13642;DHT22;6894;52.196;9.904;2022-11-21T11:39:36;3.40;1.00
13642;DHT22;6894;52.196;9.904;2022-11-21T11:42:40;3.70;1.00
13642;DHT22;6894;52.196;9.904;2022-11-21T11:45:46;3.60;1.00
13642;DHT22;6894;52.196;9.904;2022-11-21T11:48:34;3.50;1.00
13642;DHT22;6894;52.196;9.904;2022-11-21T11:51:09;3.90;1.00
13642;DHT22;6894;52.196;9.904;2022-11-21T11:53:43;4.40;1.00
13642;DHT22;6894;52.196;9.904;2022-11-21T11:56:16;4.80;1.00
13642;DHT22;6894;52.196;9.904;2022-11-21T11:58:46;5.10;1.00
13642;DHT22;6894;52.196;9.904;2022-11-21T12:01:19;5.40;1.00
13642;DHT22;6894;52.196;9.904;2022-11-21T12:03:52;5.60;1.00
13642;DHT22;6894;52.196;9.904;2022-11-21T12:06:25;5.50;99.90
13642;DHT22;6894;52.196;9.904;2022-11-21T12:08:53;5.40;99.90
13642;DHT22;6894;52.196;9.904;2022-11-21T12:11:28;5.40;1.00
13642;DHT22;6894;52.196;9.904;2022-11-21T12:14:22;5.80;99.90
13642;DHT22;6894;52.196;9.904;2022-11-21T12:17:14;6.30;1.00
13642;DHT22;6894;52.196;9.904;2022-11-21T12:19:43;6.00;1.00
13642;DHT22;6894;52.196;9.904;2022-11-21T12:22:11;5.80;1.00
13642;DHT22;6894;52.196;9.904;2022-11-21T12:24:38;5.50;99.90
13642;DHT22;6894;52.196;9.904;2022-11-21T12:27:15;5.40;99.90
13642;DHT22;6894;52.196;9.904;2022-11-21T12:29:55;5.40;99.90
13642;DHT22;6894;52.196;9.904;2022-11-21T12:32:36;5.20;1.00
13642;DHT22;6894;52.196;9.904;2022-11-21T12:35:28;5.20;1.00
13642;DHT22;6894;52.196;9.904;2022-11-21T12:38:05;5.20;44.70
13642;DHT22;6894;52.196;9.904;2022-11-21T12:40:44;5.00;1.00
13642;DHT22;6894;52.196;9.904;2022-11-21T12:43:22;5.00;1.00
13642;DHT22;6894;52.196;9.904;2022-11-21T12:45:53;5.20;1.00
13642;DHT22;6894;52.196;9.904;2022-11-21T12:48:34;5.20;89.90
13642;DHT22;6894;52.196;9.904;2022-11-21T12:51:32;5.20;99.90
13642;DHT22;6894;52.196;9.904;2022-11-21T12:55:02;5.50;1.00
13642;DHT22;6894;52.196;9.904;2022-11-21T12:57:41;5.50;99.90
13642;DHT22;6894;52.196;9.904;2022-11-21T13:00:13;5.70;99.90
13642;DHT22;6894;52.196;9.904;2022-11-21T13:02:55;5.90;99.90
13642;DHT22;6894;52.196;9.904;2022-11-21T13:05:29;5.80;1.00
13642;DHT22;6894;52.196;9.904;2022-11-21T13:08:01;5.80;1.00
13642;DHT22;6894;52.196;9.904;2022-11-21T13:10:31;5.70;1.00
13642;DHT22;6894;52.196;9.904;2022-11-21T13:13:02;5.70;1.00
13642;DHT22;6894;52.196;9.904;2022-11-21T13:15:39;6.00;99.90
13642;DHT22;6894;52.196;9.904;2022-11-21T13:18:15;6.00;99.90
13642;DHT22;6894;52.196;9.904;2022-11-21T13:20:46;6.00;77.70
13642;DHT22;6894;52.196;9.904;2022-11-21T13:23:35;6.40;99.90
13642;DHT22;6894;52.196;9.904;2022-11-21T13:29:09;6.60;1.00
13642;DHT22;6894;52.196;9.904;2022-11-21T13:31:36;6.90;99.90
13642;DHT22;6894;52.196;9.904;2022-11-21T13:34:04;6.90;1.00
13642;DHT22;6894;52.196;9.904;2022-11-21T13:36:51;6.80;1.00
13642;DHT22;6894;52.196;9.904;2022-11-21T13:39:28;7.10;99.90
13642;DHT22;6894;52.196;9.904;2022-11-21T13:42:14;7.10;1.00
13642;DHT22;6894;52.196;9.904;2022-11-21T13:45:36;7.50;40.80
13642;DHT22;6894;52.196;9.904;2022-11-21T13:48:27;7.80;1.00
13642;DHT22;6894;52.196;9.904;2022-11-21T13:57:31;9.00;1.00
13642;DHT22;6894;52.196;9.904;2022-11-21T14:00:26;9.40;1.00
13642;DHT22;6894;52.196;9.904;2022-11-21T14:06:20;9.70;99.90
13642;DHT22;6894;52.196;9.904;2022-11-21T14:09:21;9.30;99.90
13642;DHT22;6894;52.196;9.904;2022-11-21T14:11:51;9.30;99.90
13642;DHT22;6894;52.196;9.904;2022-11-21T14:14:33;9.30;99.90
13642;DHT22;6894;52.196;9.904;2022-11-21T14:19:56;9.30;99.90
13642;DHT22;6894;52.196;9.904;2022-11-21T14:22:27;9.40;99.90
13642;DHT22;6894;52.196;9.904;2022-11-21T14:24:56;9.30;1.00
13642;DHT22;6894;52.196;9.904;2022-11-21T14:27:27;9.50;99.90
13642;DHT22;6894;52.196;9.904;2022-11-21T14:29:56;9.30;99.90
13642;DHT22;6894;52.196;9.904;2022-11-21T14:32:26;9.20;99.90
13642;DHT22;6894;52.196;9.904;2022-11-21T14:35:06;8.80;1.00
13642;DHT22;6894;52.196;9.904;2022-11-21T14:37:34;7.90;1.00
13642;DHT22;6894;52.196;9.904;2022-11-21T14:40:03;7.10;1.00
13642;DHT22;6894;52.196;9.904;2022-11-21T14:42:34;6.10;13.60
13642;DHT22;6894;52.196;9.904;2022-11-21T14:45:15;5.10;1.00
13642;DHT22;6894;52.196;9.904;2022-11-21T14:47:47;4.30;99.90
13642;DHT22;6894;52.196;9.904;2022-11-21T14:50:25;3.30;99.90
13642;DHT22;6894;52.196;9.904;2022-11-21T14:52:52;2.50;1.00
13642;DHT22;6894;52.196;9.904;2022-11-21T14:55:24;2.10;1.00
13642;DHT22;6894;52.196;9.904;2022-11-21T14:57:52;1.70;1.00
13642;DHT22;6894;52.196;9.904;2022-11-21T15:00:23;1.50;48.00
13642;DHT22;6894;52.196;9.904;2022-11-21T15:02:56;1.40;99.90
13642;DHT22;6894;52.196;9.904;2022-11-21T15:05:32;1.80;99.90
13642;DHT22;6894;52.196;9.904;2022-11-21T15:07:59;1.10;99.90
13642;DHT22;6894;52.196;9.904;2022-11-21T15:10:29;1.00;99.90
13642;DHT22;6894;52.196;9.904;2022-11-21T15:13:00;2.00;99.90
13642;DHT22;6894;52.196;9.904;2022-11-21T15:15:31;0.80;99.90
13642;DHT22;6894;52.196;9.904;2022-11-21T15:18:00;0.70;99.90
13642;DHT22;6894;52.196;9.904;2022-11-21T15:20:30;0.60;99.90
13642;DHT22;6894;52.196;9.904;2022-11-21T15:23:01;0.60;99.90
13642;DHT22;6894;52.196;9.904;2022-11-21T15:25:44;0.50;99.90
13642;DHT22;6894;52.196;9.904;2022-11-21T15:28:14;0.50;99.90
13642;DHT22;6894;52.196;9.904;2022-11-21T15:30:43;0.50;99.90
13642;DHT22;6894;52.196;9.904;2022-11-21T15:33:12;0.60;99.90
13642;DHT22;6894;52.196;9.904;2022-11-21T15:35:48;0.30;99.90
13642;DHT22;6894;52.196;9.904;2022-11-21T15:38:27;0.30;99.90
13642;DHT22;6894;52.196;9.904;2022-11-21T15:41:02;0.20;99.90
13642;DHT22;6894;52.196;9.904;2022-11-21T15:43:40;0.10;99.90
13642;DHT22;6894;52.196;9.904;2022-11-21T15:46:16;0.20;99.90
13642;DHT22;6894;52.196;9.904;2022-11-21T15:48:45;0.10;99.90
13642;DHT22;6894;52.196;9.904;2022-11-21T15:51:12;0.10;99.90
13642;DHT22;6894;52.196;9.904;2022-11-21T15:53:39;0.10;99.90
13642;DHT22;6894;52.196;9.904;2022-11-21T15:56:08;0.00;99.90
13642;DHT22;6894;52.196;9.904;2022-11-21T15:58:35;0.00;99.90
13642;DHT22;6894;52.196;9.904;2022-11-21T16:01:02;0.00;99.90
13642;DHT22;6894;52.196;9.904;2022-11-21T16:03:30;0.00;99.90
13642;DHT22;6894;52.196;9.904;2022-11-21T16:05:57;0.10;99.90
13642;DHT22;6894;52.196;9.904;2022-11-21T16:08:23;0.10;99.90
13642;DHT22;6894;52.196;9.904;2022-11-21T16:10:50;0.10;99.90
13642;DHT22;6894;52.196;9.904;2022-11-21T16:13:17;0.20;99.90
13642;DHT22;6894;52.196;9.904;2022-11-21T16:15:43;0.20;99.90
13642;DHT22;6894;52.196;9.904;2022-11-21T16:18:10;0.20;99.90
13642;DHT22;6894;52.196;9.904;2022-11-21T16:20:38;0.30;99.90
13642;DHT22;6894;52.196;9.904;2022-11-21T16:23:05;0.30;99.90
13642;DHT22;6894;52.196;9.904;2022-11-21T16:25:31;0.40;99.90
13642;DHT22;6894;52.196;9.904;2022-11-21T16:27:58;0.40;99.90
13642;DHT22;6894;52.196;9.904;2022-11-21T16:30:25;0.50;99.90
13642;DHT22;6894;52.196;9.904;2022-11-21T16:32:52;0.50;99.90
13642;DHT22;6894;52.196;9.904;2022-11-21T16:35:20;0.50;99.90
13642;DHT22;6894;52.196;9.904;2022-11-21T16:37:49;0.60;99.90
13642;DHT22;6894;52.196;9.904;2022-11-21T16:40:17;0.60;99.90
13642;DHT22;6894;52.196;9.904;2022-11-21T16:42:44;0.60;99.90